Time;durP1;ratioP1;P1;durP2;ratioP2;P2;SDS_P1;SDS_P2;PMS_P1;PMS_P2;Temp;Humidity;BMP_temperature;BMP_pressure;BME280_temperature;BME280_humidity;BME280_pressure;Samples;Min_cycle;Max_cycle;Signal;HPM_P1;HPM_P2
2021/07/17 00:00:34;;;;;;;21.07;15.97;;;19.30;99.90;;;;;;5111862;28;20439;-72
2021/07/17 00:03:03;;;;;;;16.37;14.63;;;19.10;99.90;;;;;;5111455;28;20803;-73
2021/07/17 00:05:30;;;;;;;20.23;14.67;;;19.10;99.90;;;;;;5111110;28;20967;-73
2021/07/17 00:07:57;;;;;;;19.80;15.10;;;19.20;99.90;;;;;;5111612;28;20962;-73
2021/07/17 00:10:27;;;;;;;19.17;15.90;;;19.00;99.90;;;;;;5110888;28;20928;-73
2021/07/17 00:12:54;;;;;;;19.53;15.40;;;18.80;99.90;;;;;;5111655;28;20570;-73
2021/07/17 00:15:24;;;;;;;21.93;15.10;;;18.80;99.90;;;;;;5110963;28;20961;-74
2021/07/17 00:17:52;;;;;;;19.97;14.97;;;18.90;99.90;;;;;;5111422;28;20446;-73
2021/07/17 00:20:19;;;;;;;22.53;16.90;;;18.90;99.90;;;;;;5111058;28;20472;-74
2021/07/17 00:22:46;;;;;;;19.83;15.80;;;18.90;99.90;;;;;;5111613;28;20445;-73
2021/07/17 00:25:16;;;;;;;20.50;15.30;;;18.80;99.90;;;;;;5110719;28;20961;-74
2021/07/17 00:27:44;;;;;;;19.50;15.03;;;18.90;99.90;;;;;;5111170;28;20927;-73
2021/07/17 00:30:12;;;;;;;17.37;14.00;;;18.90;99.90;;;;;;5113557;28;20640;-76
2021/07/17 00:32:39;;;;;;;21.90;15.30;;;18.90;99.90;;;;;;5115610;28;20450;-73
2021/07/17 00:35:09;;;;;;;20.70;15.13;;;19.00;99.90;;;;;;5115504;28;20523;-73
2021/07/17 00:37:36;;;;;;;22.37;15.90;;;18.90;99.90;;;;;;5115576;28;20535;-74
2021/07/17 00:40:04;;;;;;;21.50;14.40;;;18.80;99.90;;;;;;5115506;28;20463;-75
2021/07/17 00:42:31;;;;;;;20.27;15.00;;;18.90;99.90;;;;;;5114843;28;20463;-74
2021/07/17 00:44:58;;;;;;;20.40;15.33;;;18.90;99.90;;;;;;5115524;28;20814;-75
2021/07/17 00:47:26;;;;;;;22.40;15.23;;;18.90;99.90;;;;;;5114779;28;20438;-71
2021/07/17 00:49:53;;;;;;;22.43;15.33;;;18.90;99.90;;;;;;5115440;28;20761;-73
2021/07/17 00:52:22;;;;;;;21.87;16.03;;;18.90;99.90;;;;;;5114682;28;20440;-74
2021/07/17 00:54:50;;;;;;;19.07;16.90;;;18.90;99.90;;;;;;5114721;28;20990;-74
2021/07/17 00:57:19;;;;;;;19.00;14.50;;;18.90;99.90;;;;;;5114645;28;20800;-74
2021/07/17 00:59:48;;;;;;;19.63;14.80;;;18.80;99.90;;;;;;5115314;28;20800;-74
2021/07/17 01:02:18;;;;;;;24.93;16.60;;;18.90;99.90;;;;;;5114896;28;20517;-74
2021/07/17 01:04:45;;;;;;;19.63;15.57;;;18.80;99.90;;;;;;5115080;28;20463;-73
2021/07/17 01:07:13;;;;;;;19.03;14.60;;;18.70;99.90;;;;;;5114468;28;20801;-73
2021/07/17 01:09:41;;;;;;;17.57;15.07;;;18.80;99.90;;;;;;5115113;28;20446;-73
2021/07/17 01:12:08;;;;;;;18.13;13.17;;;18.60;99.90;;;;;;5115059;28;20542;-74
2021/07/17 01:14:35;;;;;;;18.10;14.53;;;18.80;99.90;;;;;;5114061;28;20486;-74
2021/07/17 01:17:02;;;;;;;18.77;15.50;;;18.80;99.90;;;;;;5114988;28;20435;-74
2021/07/17 01:19:29;;;;;;;19.03;15.37;;;18.70;99.90;;;;;;5114013;28;20435;-75
2021/07/17 01:21:58;;;;;;;16.97;13.80;;;18.60;99.90;;;;;;5114827;28;20530;-75
2021/07/17 01:24:25;;;;;;;19.03;16.20;;;18.50;99.90;;;;;;5113928;28;20458;-76
2021/07/17 01:26:53;;;;;;;22.27;17.20;;;18.60;99.90;;;;;;5114829;28;20454;-75
2021/07/17 01:29:22;;;;;;;20.03;15.30;;;18.70;99.90;;;;;;5114119;28;20486;-73
2021/07/17 01:31:49;;;;;;;18.90;15.40;;;18.70;99.90;;;;;;5114464;28;20452;-74
2021/07/17 01:34:17;;;;;;;19.20;15.23;;;18.70;99.90;;;;;;5113610;28;20472;-75
2021/07/17 01:36:43;;;;;;;20.67;16.20;;;18.70;99.90;;;;;;5114673;28;20535;-76
2021/07/17 01:39:12;;;;;;;21.23;15.03;;;18.60;99.90;;;;;;5114405;28;20451;-75
2021/07/17 01:41:39;;;;;;;19.13;15.77;;;18.60;99.90;;;;;;5114003;28;20475;-75
2021/07/17 01:44:08;;;;;;;19.40;15.40;;;18.60;99.90;;;;;;5114166;28;20519;-77
2021/07/17 01:46:35;;;;;;;20.67;16.17;;;18.60;99.90;;;;;;5113822;28;20447;-75
2021/07/17 01:49:02;;;;;;;24.13;16.80;;;18.60;99.90;;;;;;5114373;28;20507;-74
2021/07/17 01:51:29;;;;;;;21.13;16.93;;;18.60;99.90;;;;;;5113216;28;20442;-74
2021/07/17 01:53:57;;;;;;;18.20;15.03;;;18.40;99.90;;;;;;5114097;28;20566;-76
2021/07/17 01:56:26;;;;;;;19.23;14.33;;;18.40;99.90;;;;;;5113857;28;20444;-77
2021/07/17 01:58:54;;;;;;;18.83;15.57;;;18.50;99.90;;;;;;5114254;28;20447;-77
2021/07/17 02:01:21;;;;;;;20.00;15.57;;;18.60;99.90;;;;;;5113202;28;20454;-76
2021/07/17 02:03:48;;;;;;;20.60;15.77;;;18.60;99.90;;;;;;5113456;28;20950;-74
2021/07/17 02:06:22;;;;;;;21.07;16.33;;;18.70;99.90;;;;;;5113352;28;20768;-74
2021/07/17 02:08:49;;;;;;;21.53;15.57;;;18.60;99.90;;;;;;5113616;28;20424;-75
2021/07/17 02:11:16;;;;;;;19.73;16.23;;;18.60;99.90;;;;;;5113051;28;20479;-76
2021/07/17 02:13:44;;;;;;;18.97;16.33;;;18.60;99.90;;;;;;5113772;28;20475;-74
2021/07/17 02:16:11;;;;;;;19.00;14.57;;;18.60;99.90;;;;;;5114146;28;20535;-74
2021/07/17 02:18:38;;;;;;;17.57;14.10;;;18.30;99.90;;;;;;5113149;28;20442;-74
2021/07/17 02:21:07;;;;;;;18.40;14.87;;;18.40;99.90;;;;;;5113827;28;20825;-74
2021/07/17 02:23:34;;;;;;;21.93;14.83;;;18.40;99.90;;;;;;5113186;28;20465;-74
2021/07/17 02:26:01;;;;;;;21.40;15.50;;;18.40;99.90;;;;;;5113708;28;20547;-74
2021/07/17 02:28:28;;;;;;;20.03;14.40;;;18.40;99.90;;;;;;5112961;28;20462;-73
2021/07/17 02:30:56;;;;;;;23.43;17.20;;;18.40;99.90;;;;;;5113511;28;20527;-74
2021/07/17 02:33:24;;;;;;;22.33;15.43;;;18.30;99.90;;;;;;5112768;28;20822;-72
2021/07/17 02:35:50;;;;;;;24.37;16.90;;;18.30;99.90;;;;;;5113496;28;20442;-75
2021/07/17 02:38:17;;;;;;;21.30;16.53;;;18.10;99.90;;;;;;5112576;28;20450;-74
2021/07/17 02:40:45;;;;;;;21.10;16.17;;;18.10;99.90;;;;;;5113565;28;20471;-75
2021/07/17 02:43:11;;;;;;;20.27;15.60;;;18.10;99.90;;;;;;5112875;28;21052;-75
2021/07/17 02:45:38;;;;;;;21.03;15.97;;;18.20;99.90;;;;;;5112825;28;20436;-75
2021/07/17 02:48:07;;;;;;;21.20;15.87;;;18.30;99.90;;;;;;5113278;28;20446;-75
2021/07/17 02:50:34;;;;;;;24.50;16.53;;;18.30;99.90;;;;;;5112817;28;20439;-75
2021/07/17 02:53:01;;;;;;;19.87;15.40;;;18.20;99.90;;;;;;5112164;28;20534;-75
2021/07/17 02:55:28;;;;;;;22.40;15.90;;;18.10;99.90;;;;;;5112508;28;20586;-74
2021/07/17 02:57:55;;;;;;;23.00;16.30;;;18.20;99.90;;;;;;5113035;28;20931;-75
2021/07/17 03:00:22;;;;;;;22.80;14.03;;;18.20;99.90;;;;;;5113146;28;20788;-74
2021/07/17 03:02:48;;;;;;;23.67;15.87;;;18.10;99.90;;;;;;5119625;28;20478;-73
2021/07/17 03:05:17;;;;;;;23.13;15.60;;;18.10;99.90;;;;;;5112952;28;20472;-73
2021/07/17 03:07:43;;;;;;;28.13;17.20;;;18.20;99.90;;;;;;5112638;28;20432;-75
2021/07/17 03:10:11;;;;;;;23.37;16.57;;;18.20;99.90;;;;;;5111390;28;20539;-71
2021/07/17 03:12:38;;;;;;;19.67;16.13;;;18.20;99.90;;;;;;5107334;28;20693;-71
2021/07/17 03:15:05;;;;;;;20.40;15.17;;;18.20;99.90;;;;;;5109170;28;20837;-72
2021/07/17 03:17:32;;;;;;;20.53;15.97;;;18.10;99.90;;;;;;5111277;28;20450;-72
2021/07/17 03:19:59;;;;;;;21.73;16.17;;;18.10;99.90;;;;;;5112031;28;20443;-73
2021/07/17 03:22:27;;;;;;;20.40;15.50;;;18.00;99.90;;;;;;5111754;28;20450;-72
2021/07/17 03:24:54;;;;;;;21.10;16.70;;;18.00;99.90;;;;;;5112106;28;20448;-72
2021/07/17 03:27:21;;;;;;;23.77;16.33;;;17.90;99.90;;;;;;5111827;28;20527;-72
2021/07/17 03:29:49;;;;;;;19.40;15.40;;;17.90;99.90;;;;;;5112208;28;20526;-72
2021/07/17 03:32:22;;;;;;;21.80;15.20;;;18.00;99.90;;;;;;5111946;28;20452;-72
2021/07/17 03:34:49;;;;;;;21.60;17.10;;;17.90;99.90;;;;;;5111431;28;20563;-72
2021/07/17 03:37:16;;;;;;;22.07;15.87;;;18.00;99.90;;;;;;5112157;28;20450;-72
2021/07/17 03:39:44;;;;;;;19.73;16.53;;;17.90;99.90;;;;;;5111076;28;20464;-72
2021/07/17 03:42:11;;;;;;;20.60;17.20;;;17.90;99.90;;;;;;5111828;28;20454;-72
2021/07/17 03:44:37;;;;;;;19.47;15.50;;;17.70;99.90;;;;;;5111439;28;20534;-72
2021/07/17 03:47:04;;;;;;;20.53;16.00;;;17.70;99.90;;;;;;5111373;28;20435;-72
2021/07/17 03:49:31;;;;;;;23.13;16.13;;;17.70;99.90;;;;;;5111517;28;20444;-72
2021/07/17 03:51:58;;;;;;;19.60;15.37;;;17.80;99.90;;;;;;5112140;28;20446;-72
2021/07/17 03:54:26;;;;;;;20.03;16.00;;;17.80;99.90;;;;;;5110975;28;20475;-72
2021/07/17 03:56:54;;;;;;;22.00;15.97;;;17.90;99.90;;;;;;5111791;28;20795;-73
2021/07/17 03:59:21;;;;;;;23.07;16.60;;;17.80;99.90;;;;;;5111430;28;20902;-71
2021/07/17 04:01:48;;;;;;;25.00;16.27;;;17.90;99.90;;;;;;5111507;28;20458;-73
2021/07/17 04:04:15;;;;;;;19.30;16.53;;;18.00;99.90;;;;;;5111136;28;20562;-73
2021/07/17 04:06:42;;;;;;;19.57;15.83;;;18.00;99.90;;;;;;5111075;28;20532;-73
2021/07/17 04:09:09;;;;;;;20.60;15.27;;;18.00;99.90;;;;;;5111165;28;20446;-73
2021/07/17 04:11:35;;;;;;;22.20;14.53;;;17.90;99.90;;;;;;5110701;28;20501;-73
2021/07/17 04:14:04;;;;;;;22.80;16.77;;;17.90;99.90;;;;;;5111199;28;21111;-73
2021/07/17 04:16:31;;;;;;;20.33;16.13;;;17.80;99.90;;;;;;5110864;28;20452;-73
2021/07/17 04:18:58;;;;;;;21.47;15.67;;;17.90;99.90;;;;;;5111402;28;20470;-73
2021/07/17 04:21:25;;;;;;;20.63;16.37;;;18.00;99.90;;;;;;5110736;28;20468;-72
2021/07/17 04:23:51;;;;;;;18.10;14.70;;;18.10;99.90;;;;;;5111218;28;20435;-73
2021/07/17 04:26:18;;;;;;;22.80;16.33;;;18.20;99.90;;;;;;5110842;28;20482;-73
2021/07/17 04:28:45;;;;;;;23.37;17.00;;;18.10;99.90;;;;;;5110733;28;20530;-73
2021/07/17 04:31:14;;;;;;;21.87;17.60;;;18.20;99.90;;;;;;5096920;28;20455;-73
2021/07/17 04:33:40;;;;;;;28.50;17.83;;;18.10;99.90;;;;;;5092333;28;20950;-73
2021/07/17 04:36:10;;;;;;;24.13;16.03;;;18.30;99.90;;;;;;5111286;28;20446;-73
2021/07/17 04:38:37;;;;;;;23.43;16.23;;;18.30;99.90;;;;;;5110694;28;20439;-73
2021/07/17 04:41:04;;;;;;;20.73;15.40;;;18.30;99.90;;;;;;5111257;28;20479;-73
2021/07/17 04:43:31;;;;;;;19.40;16.90;;;18.20;99.90;;;;;;5110613;28;20473;-73
2021/07/17 04:45:58;;;;;;;27.90;17.17;;;18.10;99.90;;;;;;5111115;28;20454;-73
2021/07/17 04:48:26;;;;;;;24.43;16.70;;;18.10;99.90;;;;;;5110718;28;20447;-72
2021/07/17 04:50:53;;;;;;;24.57;18.10;;;18.20;99.90;;;;;;5111156;28;20450;-73
2021/07/17 04:53:20;;;;;;;21.70;16.60;;;18.20;99.90;;;;;;5111378;28;20798;-73
2021/07/17 04:55:47;;;;;;;21.27;15.13;;;18.20;99.90;;;;;;5110529;28;20490;-73
2021/07/17 04:58:14;;;;;;;24.37;18.37;;;18.20;99.90;;;;;;5111402;28;20444;-73
2021/07/17 05:00:41;;;;;;;19.03;16.77;;;18.30;99.90;;;;;;5110224;28;20439;-72
2021/07/17 05:03:07;;;;;;;22.00;15.77;;;18.30;99.90;;;;;;5111499;28;20474;-73
2021/07/17 05:05:36;;;;;;;20.97;15.73;;;18.20;99.90;;;;;;5110779;28;20471;-72
2021/07/17 05:08:03;;;;;;;19.87;15.80;;;18.20;99.90;;;;;;5110750;28;20501;-72
2021/07/17 05:10:30;;;;;;;21.97;16.20;;;18.20;99.90;;;;;;5110518;28;20440;-72
2021/07/17 05:12:57;;;;;;;18.30;15.07;;;18.10;99.90;;;;;;5110930;28;20462;-73
2021/07/17 05:15:24;;;;;;;18.60;15.67;;;18.30;99.90;;;;;;5111752;28;20472;-73
2021/07/17 05:17:51;;;;;;;17.43;15.53;;;18.30;99.90;;;;;;5114642;28;20931;-73
2021/07/17 05:20:18;;;;;;;19.63;15.33;;;18.20;99.90;;;;;;5114363;28;20443;-73
2021/07/17 05:22:47;;;;;;;17.70;13.17;;;18.30;99.90;;;;;;5113566;28;20875;-72
2021/07/17 05:25:14;;;;;;;19.30;15.20;;;18.30;99.90;;;;;;5114205;28;20543;-73
2021/07/17 05:27:40;;;;;;;16.27;14.47;;;18.40;99.90;;;;;;5113482;28;20454;-73
2021/07/17 05:30:08;;;;;;;22.60;16.03;;;18.40;99.90;;;;;;5114657;28;20835;-73
2021/07/17 05:32:35;;;;;;;18.00;14.87;;;18.30;99.90;;;;;;5113948;28;20451;-72
2021/07/17 05:35:02;;;;;;;20.50;14.87;;;18.20;99.90;;;;;;5113991;28;20475;-73
2021/07/17 05:37:29;;;;;;;16.47;14.33;;;18.30;99.90;;;;;;5113510;28;20958;-72
2021/07/17 05:39:57;;;;;;;19.73;15.17;;;18.40;99.90;;;;;;5114104;28;20447;-73
2021/07/17 05:42:24;;;;;;;20.77;15.80;;;18.20;99.90;;;;;;5114357;28;20492;-73
2021/07/17 05:44:51;;;;;;;20.57;14.87;;;18.30;99.90;;;;;;5113517;28;20455;-73
2021/07/17 05:47:19;;;;;;;17.03;14.07;;;18.30;99.90;;;;;;5114171;28;20446;-73
2021/07/17 05:49:46;;;;;;;17.40;14.33;;;18.50;99.90;;;;;;5113638;28;20530;-74
2021/07/17 05:52:13;;;;;;;20.27;16.40;;;18.60;99.90;;;;;;5113365;28;20903;-73
2021/07/17 05:54:40;;;;;;;18.60;12.77;;;18.50;99.90;;;;;;5113102;28;20468;-72
2021/07/17 05:57:09;;;;;;;18.93;14.43;;;18.60;99.90;;;;;;5113703;28;20955;-72
2021/07/17 05:59:36;;;;;;;21.40;14.23;;;18.50;99.90;;;;;;5113255;28;21011;-73
2021/07/17 06:02:03;;;;;;;15.77;14.10;;;18.50;99.90;;;;;;5113478;28;20462;-73
2021/07/17 06:04:30;;;;;;;20.00;14.97;;;18.60;99.90;;;;;;5113236;28;20473;-72
2021/07/17 06:06:57;;;;;;;16.73;13.30;;;18.70;99.90;;;;;;5113956;28;20439;-73
2021/07/17 06:09:24;;;;;;;20.77;15.10;;;18.70;99.90;;;;;;5113710;28;20530;-73
2021/07/17 06:11:51;;;;;;;17.20;13.00;;;18.70;99.90;;;;;;5113287;28;20443;-73
2021/07/17 06:14:19;;;;;;;16.03;12.80;;;19.00;99.90;;;;;;5113381;28;20448;-73
2021/07/17 06:16:46;;;;;;;16.63;13.97;;;19.10;99.90;;;;;;5112241;28;20452;-73
2021/07/17 06:19:13;;;;;;;15.80;13.27;;;19.00;99.90;;;;;;5112931;28;20440;-72
2021/07/17 06:21:40;;;;;;;16.33;14.63;;;19.00;99.90;;;;;;5113044;28;20798;-73
2021/07/17 06:24:07;;;;;;;18.33;13.50;;;18.90;99.90;;;;;;5113487;28;20451;-74
2021/07/17 06:26:34;;;;;;;17.87;13.70;;;18.90;99.90;;;;;;5112912;27;20535;-73
2021/07/17 06:29:01;;;;;;;16.80;14.53;;;18.90;99.90;;;;;;5112959;28;20531;-73
2021/07/17 06:31:30;;;;;;;17.43;14.77;;;18.90;99.90;;;;;;5113615;28;20448;-73
2021/07/17 06:33:56;;;;;;;18.00;14.93;;;19.00;99.90;;;;;;5112999;28;20515;-73
2021/07/17 06:36:23;;;;;;;16.90;13.33;;;18.80;99.90;;;;;;5112963;28;20558;-73
2021/07/17 06:38:50;;;;;;;19.07;14.70;;;18.70;99.90;;;;;;5112232;28;20490;-73
2021/07/17 06:41:17;;;;;;;18.13;14.00;;;18.90;99.90;;;;;;5113170;28;20472;-73
2021/07/17 06:43:44;;;;;;;14.67;12.50;;;19.00;99.90;;;;;;5112681;28;20448;-73
2021/07/17 06:46:11;;;;;;;17.60;13.90;;;18.90;99.90;;;;;;5113054;28;20444;-73
2021/07/17 06:48:39;;;;;;;15.07;12.97;;;18.70;99.90;;;;;;5112453;28;20443;-73
2021/07/17 06:51:08;;;;;;;20.33;13.77;;;18.90;99.90;;;;;;5113001;28;20446;-73
2021/07/17 06:53:35;;;;;;;18.00;12.93;;;19.00;99.90;;;;;;5111950;28;20489;-72
2021/07/17 06:56:02;;;;;;;16.87;13.50;;;19.00;99.90;;;;;;5112635;28;21012;-73
2021/07/17 06:58:29;;;;;;;17.97;14.37;;;19.10;99.90;;;;;;5112093;28;20458;-73
2021/07/17 07:00:57;;;;;;;16.83;13.47;;;19.10;99.90;;;;;;5111920;28;20447;-73
2021/07/17 07:03:24;;;;;;;18.47;13.83;;;18.90;99.90;;;;;;5112598;28;20531;-73
2021/07/17 07:05:52;;;;;;;15.97;13.20;;;19.00;99.90;;;;;;5111871;28;20573;-72
2021/07/17 07:08:20;;;;;;;15.87;13.40;;;19.20;99.90;;;;;;5112357;28;20444;-73
2021/07/17 07:10:46;;;;;;;15.20;12.80;;;19.20;99.90;;;;;;5111115;28;20448;-73
2021/07/17 07:13:15;;;;;;;22.60;14.50;;;19.30;99.90;;;;;;5112118;27;20450;-72
2021/07/17 07:15:42;;;;;;;18.63;15.37;;;19.30;99.90;;;;;;5111293;28;20475;-73
2021/07/17 07:18:09;;;;;;;14.83;13.23;;;19.30;99.90;;;;;;5112188;28;20436;-72
2021/07/17 07:20:36;;;;;;;21.20;15.50;;;19.10;99.90;;;;;;5111948;28;20462;-72
2021/07/17 07:23:04;;;;;;;15.90;14.00;;;19.10;99.90;;;;;;5112458;28;20471;-73
2021/07/17 07:25:32;;;;;;;17.07;13.77;;;18.90;99.90;;;;;;5092262;28;20824;-73
2021/07/17 07:27:59;;;;;;;20.70;15.10;;;19.10;99.90;;;;;;5107295;28;20436;-73
2021/07/17 07:30:26;;;;;;;17.10;13.93;;;19.00;99.90;;;;;;5112360;28;20535;-72
2021/07/17 07:32:53;;;;;;;17.03;13.70;;;19.00;99.90;;;;;;5111711;28;20462;-73
2021/07/17 07:35:21;;;;;;;18.90;13.53;;;19.20;99.90;;;;;;5111915;28;20482;-72
2021/07/17 07:37:49;;;;;;;18.53;14.17;;;19.20;99.90;;;;;;5090824;28;20436;-73
2021/07/17 07:40:19;;;;;;;18.37;15.63;;;19.50;99.90;;;;;;5105100;28;20444;-73
2021/07/17 07:42:46;;;;;;;15.03;13.43;;;19.60;99.90;;;;;;5111716;28;20530;-73
2021/07/17 07:45:13;;;;;;;14.77;13.10;;;19.60;99.90;;;;;;5110987;28;20879;-73
2021/07/17 07:47:40;;;;;;;20.17;13.33;;;19.60;99.90;;;;;;5111141;28;20440;-72
2021/07/17 07:50:08;;;;;;;18.13;13.67;;;19.70;99.90;;;;;;5111903;28;20454;-73
2021/07/17 07:52:35;;;;;;;21.40;13.40;;;19.70;99.90;;;;;;5111049;28;20446;-71
2021/07/17 07:55:04;;;;;;;17.87;13.87;;;19.50;99.90;;;;;;5111861;28;20467;-72
2021/07/17 07:57:32;;;;;;;17.23;14.40;;;19.50;99.90;;;;;;5111887;28;20443;-73
2021/07/17 08:00:00;;;;;;;16.73;12.93;;;19.50;99.90;;;;;;5111197;28;20475;-73
2021/07/17 08:02:27;;;;;;;13.73;12.20;;;19.60;99.90;;;;;;5111666;28;20464;-72
2021/07/17 08:04:54;;;;;;;15.90;11.90;;;19.50;99.90;;;;;;5110608;28;20987;-72
2021/07/17 08:07:21;;;;;;;24.90;16.40;;;19.40;99.90;;;;;;5111625;28;20526;-72
2021/07/17 08:09:47;;;;;;;17.73;14.13;;;19.40;99.90;;;;;;5110612;28;20514;-72
2021/07/17 08:12:14;;;;;;;15.60;13.30;;;19.40;99.90;;;;;;5111322;28;20962;-73
2021/07/17 08:14:43;;;;;;;16.67;12.83;;;19.40;99.90;;;;;;5110124;28;20435;-72
2021/07/17 08:17:10;;;;;;;20.97;16.20;;;19.30;99.90;;;;;;5111096;28;20829;-73
2021/07/17 08:19:37;;;;;;;18.10;16.20;;;19.20;99.90;;;;;;5110966;28;20915;-71
2021/07/17 08:22:04;;;;;;;17.87;15.73;;;19.30;99.90;;;;;;5111801;28;20802;-73
2021/07/17 08:24:31;;;;;;;21.57;15.30;;;19.10;99.90;;;;;;5111162;28;20943;-73
2021/07/17 08:26:57;;;;;;;18.80;15.27;;;19.00;99.90;;;;;;5110405;28;20809;-73
2021/07/17 08:29:24;;;;;;;20.93;16.17;;;18.80;99.90;;;;;;5110826;28;20812;-72
2021/07/17 08:31:52;;;;;;;18.70;15.43;;;18.90;99.90;;;;;;5110657;28;20902;-73
2021/07/17 08:34:19;;;;;;;18.67;14.67;;;19.00;99.90;;;;;;5111436;28;20436;-73
2021/07/17 08:36:46;;;;;;;22.43;15.43;;;19.10;99.90;;;;;;5110369;28;20991;-73
2021/07/17 08:39:13;;;;;;;20.60;15.50;;;19.20;99.90;;;;;;5111326;28;20494;-73
2021/07/17 08:41:44;;;;;;;17.17;15.27;;;19.20;99.90;;;;;;5110940;28;20515;-72
2021/07/17 08:44:12;;;;;;;19.60;15.63;;;19.20;99.90;;;;;;5111066;28;20496;-73
2021/07/17 08:46:40;;;;;;;18.63;14.90;;;19.20;99.90;;;;;;5109601;28;20517;-72
2021/07/17 08:49:08;;;;;;;20.13;15.33;;;19.40;99.90;;;;;;5111033;28;20444;-73
2021/07/17 08:51:35;;;;;;;18.07;14.33;;;19.40;99.90;;;;;;5114090;28;20526;-73
2021/07/17 08:54:02;;;;;;;20.37;14.70;;;19.50;99.90;;;;;;5114523;28;20443;-72
2021/07/17 08:56:30;;;;;;;17.33;13.67;;;19.70;99.90;;;;;;5114425;28;20485;-72
2021/07/17 08:58:57;;;;;;;19.07;14.50;;;19.80;99.90;;;;;;5114020;28;20474;-73
2021/07/17 09:01:24;;;;;;;18.43;13.47;;;19.70;99.90;;;;;;5114658;28;20530;-73
2021/07/17 09:03:51;;;;;;;14.90;13.30;;;19.90;99.90;;;;;;5113739;28;20530;-72
2021/07/17 09:06:19;;;;;;;19.20;13.57;;;20.00;99.90;;;;;;5114627;28;21017;-71
2021/07/17 09:08:48;;;;;;;18.50;13.90;;;;;;;;;;5114215;28;20535;-71
2021/07/17 09:11:15;;;;;;;15.13;13.53;;;;;;;;;;5115024;28;20776;-73
2021/07/17 09:13:42;;;;;;;17.27;12.30;;;;;;;;;;5114192;28;20833;-73
2021/07/17 09:16:11;;;;;;;14.87;13.20;;;20.10;99.90;;;;;;5114468;28;20471;-73
2021/07/17 09:18:44;;;;;;;13.40;12.00;;;20.30;99.90;;;;;;5113900;28;20452;-73
2021/07/17 09:21:14;;;;;;;16.23;13.70;;;20.40;99.90;;;;;;5114202;28;20475;-73
2021/07/17 09:23:44;;;;;;;16.50;12.43;;;20.40;99.90;;;;;;5113969;28;20432;-72
2021/07/17 09:26:18;;;;;;;17.00;13.37;;;20.50;99.90;;;;;;5114300;28;20442;-73
2021/07/17 09:28:55;;;;;;;16.30;12.30;;;20.40;99.90;;;;;;5113556;28;20435;-73
2021/07/17 09:31:23;;;;;;;16.30;13.93;;;20.40;99.90;;;;;;5094221;28;20440;-73
2021/07/17 09:33:50;;;;;;;14.80;13.40;;;20.20;99.90;;;;;;5101541;28;20450;-72
2021/07/17 09:36:17;;;;;;;19.40;13.03;;;20.20;99.90;;;;;;5114410;28;20480;-73
2021/07/17 09:38:50;;;;;;;16.13;13.60;;;20.10;99.90;;;;;;5113611;28;20880;-72
2021/07/17 09:41:19;;;;;;;17.30;14.30;;;20.00;99.90;;;;;;5114428;28;20436;-74
2021/07/17 09:43:46;;;;;;;15.10;12.83;;;20.00;99.90;;;;;;5114215;28;20555;-74
2021/07/17 09:46:21;;;;;;;17.37;13.20;;;19.80;99.90;;;;;;5113980;28;20567;-73
2021/07/17 09:48:52;;;;;;;16.47;13.60;;;20.00;99.90;;;;;;5113149;28;20449;-73
2021/07/17 09:51:20;;;;;;;14.67;13.17;;;20.00;99.90;;;;;;5114406;28;20447;-73
2021/07/17 09:53:50;;;;;;;18.10;14.30;;;20.10;99.90;;;;;;5113372;28;20457;-74
2021/07/17 09:56:18;;;;;;;15.40;13.77;;;20.00;99.90;;;;;;5113828;28;20559;-73
2021/07/17 09:58:45;;;;;;;15.87;13.10;;;20.10;99.90;;;;;;5113485;28;20444;-73
2021/07/17 10:01:20;;;;;;;18.23;16.17;;;20.00;99.90;;;;;;5113276;28;20530;-73
2021/07/17 10:03:48;;;;;;;19.13;14.27;;;20.00;99.90;;;;;;5113222;28;20523;-72
2021/07/17 10:06:31;;;;;;;16.70;13.50;;;19.80;99.90;;;;;;5114004;28;20472;-73
2021/07/17 10:09:01;;;;;;;15.87;12.63;;;19.80;99.90;;;;;;5112778;28;20432;-73
2021/07/17 10:11:29;;;;;;;18.20;14.50;;;20.10;99.90;;;;;;5113193;28;20943;-73
2021/07/17 10:13:57;;;;;;;17.03;14.50;;;20.20;99.90;;;;;;5112929;28;20797;-73
2021/07/17 10:16:26;;;;;;;14.40;12.23;;;20.30;99.90;;;;;;5113024;28;20908;-73
2021/07/17 10:18:54;;;;;;;15.90;14.20;;;20.50;99.90;;;;;;5112606;28;20967;-72
2021/07/17 10:21:23;;;;;;;15.23;13.17;;;20.70;99.90;;;;;;5112836;28;20534;-72
2021/07/17 10:23:50;;;;;;;15.00;12.67;;;20.70;93.00;;;;;;5094613;28;20444;-72
2021/07/17 10:26:18;;;;;;;19.23;13.17;;;20.80;99.90;;;;;;5113285;28;20549;-73
2021/07/17 10:28:45;;;;;;;18.80;14.80;;;20.90;99.90;;;;;;5112662;28;20875;-72
2021/07/17 10:31:12;;;;;;;16.20;13.10;;;21.20;1.00;;;;;;5112869;28;20453;-73
2021/07/17 10:33:39;;;;;;;16.80;13.37;;;21.00;15.80;;;;;;5112438;28;20465;-73
2021/07/17 10:36:12;;;;;;;15.40;12.90;;;21.20;1.00;;;;;;5112173;28;20798;-73
2021/07/17 10:38:43;;;;;;;24.33;14.10;;;20.90;99.90;;;;;;5112656;27;20967;-72
2021/07/17 10:41:14;;;;;;;18.53;13.60;;;20.90;99.90;;;;;;5113186;28;20511;-73
2021/07/17 10:43:43;;;;;;;19.13;13.83;;;20.80;99.90;;;;;;5111460;28;20535;-76
2021/07/17 10:46:30;;;;;;;14.63;13.13;;;20.90;99.90;;;;;;5100123;28;20462;-75
2021/07/17 10:48:58;;;;;;;13.33;11.90;;;21.10;56.80;;;;;;5108124;28;20516;-75
2021/07/17 10:51:34;;;;;;;20.77;14.00;;;21.20;1.00;;;;;;5103627;28;20436;-75
2021/07/17 10:54:06;;;;;;;15.33;13.53;;;20.90;99.90;;;;;;5111575;28;20940;-76
2021/07/17 10:56:39;;;;;;;13.60;12.20;;;21.10;1.00;;;;;;5110963;28;20474;-76
2021/07/17 10:59:28;;;;;;;15.13;13.30;;;21.00;1.00;;;;;;5103555;28;20443;-76
2021/07/17 11:02:06;;;;;;;18.97;14.80;;;20.90;99.90;;;;;;5107123;28;20913;-75
2021/07/17 11:04:36;;;;;;;17.43;14.47;;;21.00;99.90;;;;;;5102251;28;20666;-75
2021/07/17 11:07:39;;;;;;;16.90;13.90;;;21.10;1.00;;;;;;5111705;28;20447;-73
2021/07/17 11:10:39;;;;;;;16.13;14.47;;;21.30;1.00;;;;;;5091782;28;20421;-74
2021/07/17 11:13:06;;;;;;;19.53;12.93;;;21.20;1.00;;;;;;5091058;28;20772;-74
2021/07/17 11:15:49;;;;;;;16.27;13.47;;;21.40;1.00;;;;;;5101388;28;20455;-74
2021/07/17 11:18:25;;;;;;;17.30;14.70;;;21.30;1.00;;;;;;5112140;28;20474;-72
2021/07/17 11:20:58;;;;;;;13.97;11.77;;;21.30;1.00;;;;;;5111673;28;20451;-71
2021/07/17 11:23:33;;;;;;;15.97;12.20;;;21.30;1.00;;;;;;5112134;28;20436;-73
2021/07/17 11:26:04;;;;;;;17.80;14.00;;;21.50;1.00;;;;;;5109818;28;20865;-73
2021/07/17 11:29:06;;;;;;;17.77;14.00;;;21.50;1.00;;;;;;5112407;28;20447;-76
2021/07/17 11:31:55;;;;;;;15.57;13.77;;;21.50;1.00;;;;;;5091835;28;20447;-75
2021/07/17 11:34:41;;;;;;;15.20;13.53;;;21.40;1.00;;;;;;5092060;28;20826;-76
2021/07/17 11:37:18;;;;;;;18.87;13.20;;;21.50;1.00;;;;;;5091394;28;21078;-76
2021/07/17 11:39:46;;;;;;;15.17;12.70;;;21.60;1.00;;;;;;5092372;28;20483;-76
2021/07/17 11:42:16;;;;;;;14.90;13.40;;;21.70;1.00;;;;;;5108982;28;20432;-76
2021/07/17 11:44:45;;;;;;;14.90;12.80;;;21.70;99.90;;;;;;5112119;28;20451;-76
2021/07/17 11:47:16;;;;;;;16.40;14.70;;;21.90;99.90;;;;;;5111912;28;20447;-76
2021/07/17 11:49:44;;;;;;;17.03;12.13;;;22.00;99.90;;;;;;5111681;28;20523;-76
2021/07/17 11:52:13;;;;;;;14.20;11.63;;;22.00;99.90;;;;;;5110386;28;20444;-76
2021/07/17 11:54:42;;;;;;;14.83;13.17;;;22.20;99.90;;;;;;5111193;28;20519;-76
2021/07/17 11:57:11;;;;;;;13.97;12.33;;;;;;;;;;5110578;28;21287;-76
2021/07/17 11:59:39;;;;;;;13.53;12.13;;;;;;;;;;5111605;28;20479;-76
2021/07/17 12:02:09;;;;;;;15.50;11.73;;;;;;;;;;5110934;28;20484;-75
2021/07/17 12:04:38;;;;;;;14.20;12.67;;;;;;;;;;5091241;28;20562;-75
2021/07/17 12:07:08;;;;;;;15.43;12.90;;;;;;;;;;5108314;28;20454;-76
2021/07/17 12:09:39;;;;;;;14.87;12.50;;;;;;;;;;5111483;28;20451;-76
2021/07/17 12:12:16;;;;;;;16.80;13.50;;;;;;;;;;5108209;28;20444;-77
2021/07/17 12:14:43;;;;;;;13.93;12.20;;;;;;;;;;5091329;28;20554;-76
2021/07/17 12:17:10;;;;;;;14.17;12.60;;;;;;;;;;5108439;28;20667;-75
2021/07/17 12:19:40;;;;;;;15.90;12.80;;;;;;;;;;5111490;28;20479;-74
2021/07/17 12:22:08;;;;;;;16.50;13.00;;;;;;;;;;5109862;28;20444;-74
2021/07/17 12:24:35;;;;;;;15.90;13.43;;;;;;;;;;5112628;28;20454;-74
2021/07/17 12:27:03;;;;;;;16.40;13.63;;;;;;;;;;5114895;28;20975;-74
2021/07/17 12:29:30;;;;;;;13.90;12.10;;;;;;;;;;5113742;28;20435;-73
2021/07/17 12:32:01;;;;;;;18.33;12.47;;;;;;;;;;5114668;28;20535;-74
2021/07/17 12:34:29;;;;;;;15.63;11.83;;;;;;;;;;5115114;28;20436;-75
2021/07/17 12:36:57;;;;;;;12.50;11.40;;;;;;;;;;5113789;28;20467;-72
2021/07/17 12:39:24;;;;;;;16.30;14.80;;;;;;;;;;5114889;28;20985;-75
2021/07/17 12:41:52;;;;;;;13.77;12.27;;;;;;;;;;5114252;28;20450;-75